sensor_id;sensor_type;location;lat;lon;timestamp;temperature;humidity
53314;DHT22;39202;51.468;7.146;2022-11-12T00:00:53;23.60;46.10
53314;DHT22;39202;51.468;7.146;2022-11-12T00:05:55;23.60;46.00
53314;DHT22;39202;51.468;7.146;2022-11-12T00:10:58;23.60;46.10
53314;DHT22;39202;51.468;7.146;2022-11-12T00:16:00;23.60;46.10
53314;DHT22;39202;51.468;7.146;2022-11-12T00:21:01;23.60;46.10
53314;DHT22;39202;51.468;7.146;2022-11-12T00:26:04;23.60;46.10
53314;DHT22;39202;51.468;7.146;2022-11-12T00:31:08;23.50;46.10
53314;DHT22;39202;51.468;7.146;2022-11-12T00:36:10;23.50;46.10
53314;DHT22;39202;51.468;7.146;2022-11-12T00:41:13;23.50;46.00
53314;DHT22;39202;51.468;7.146;2022-11-12T00:46:15;23.50;46.10
53314;DHT22;39202;51.468;7.146;2022-11-12T00:51:17;23.50;46.10
53314;DHT22;39202;51.468;7.146;2022-11-12T00:56:20;23.50;46.10
53314;DHT22;39202;51.468;7.146;2022-11-12T01:01:22;23.50;46.80
53314;DHT22;39202;51.468;7.146;2022-11-12T01:06:24;23.40;46.00
53314;DHT22;39202;51.468;7.146;2022-11-12T01:11:28;23.40;46.10
53314;DHT22;39202;51.468;7.146;2022-11-12T01:16:33;23.40;46.10
53314;DHT22;39202;51.468;7.146;2022-11-12T01:21:38;23.40;46.10
53314;DHT22;39202;51.468;7.146;2022-11-12T01:26:41;23.40;46.10
53314;DHT22;39202;51.468;7.146;2022-11-12T01:31:42;23.40;46.10
53314;DHT22;39202;51.468;7.146;2022-11-12T01:36:44;23.40;46.20
53314;DHT22;39202;51.468;7.146;2022-11-12T01:41:47;23.40;46.10
53314;DHT22;39202;51.468;7.146;2022-11-12T01:46:56;23.40;46.00
53314;DHT22;39202;51.468;7.146;2022-11-12T01:52:05;23.40;46.10
53314;DHT22;39202;51.468;7.146;2022-11-12T01:57:11;23.30;46.10
53314;DHT22;39202;51.468;7.146;2022-11-12T02:02:14;23.30;46.10
53314;DHT22;39202;51.468;7.146;2022-11-12T02:07:16;23.30;46.10
53314;DHT22;39202;51.468;7.146;2022-11-12T02:12:21;23.30;46.10
53314;DHT22;39202;51.468;7.146;2022-11-12T02:17:40;23.30;46.10
53314;DHT22;39202;51.468;7.146;2022-11-12T02:22:43;23.30;46.10
53314;DHT22;39202;51.468;7.146;2022-11-12T02:27:45;23.30;46.10
53314;DHT22;39202;51.468;7.146;2022-11-12T02:32:51;23.20;46.10
53314;DHT22;39202;51.468;7.146;2022-11-12T02:37:54;23.20;46.10
53314;DHT22;39202;51.468;7.146;2022-11-12T02:42:55;23.20;46.10
53314;DHT22;39202;51.468;7.146;2022-11-12T02:47:57;23.20;46.10
53314;DHT22;39202;51.468;7.146;2022-11-12T02:53:00;23.20;46.10
53314;DHT22;39202;51.468;7.146;2022-11-12T02:58:02;23.20;46.10
53314;DHT22;39202;51.468;7.146;2022-11-12T03:03:03;23.20;46.10
53314;DHT22;39202;51.468;7.146;2022-11-12T03:08:08;23.20;46.10
53314;DHT22;39202;51.468;7.146;2022-11-12T03:13:09;23.10;46.10
53314;DHT22;39202;51.468;7.146;2022-11-12T03:18:11;23.10;46.10
53314;DHT22;39202;51.468;7.146;2022-11-12T03:23:14;23.10;46.10
53314;DHT22;39202;51.468;7.146;2022-11-12T03:28:16;23.10;46.10
53314;DHT22;39202;51.468;7.146;2022-11-12T03:33:18;23.10;46.10
53314;DHT22;39202;51.468;7.146;2022-11-12T03:38:21;23.10;46.10
53314;DHT22;39202;51.468;7.146;2022-11-12T03:43:23;23.10;46.10
53314;DHT22;39202;51.468;7.146;2022-11-12T03:48:24;23.00;46.10
53314;DHT22;39202;51.468;7.146;2022-11-12T03:53:27;23.00;46.10
53314;DHT22;39202;51.468;7.146;2022-11-12T03:58:29;23.00;46.10
53314;DHT22;39202;51.468;7.146;2022-11-12T04:03:31;23.00;46.10
53314;DHT22;39202;51.468;7.146;2022-11-12T04:08:34;23.00;46.10
53314;DHT22;39202;51.468;7.146;2022-11-12T04:13:38;23.00;46.10
53314;DHT22;39202;51.468;7.146;2022-11-12T04:18:42;23.00;46.10
53314;DHT22;39202;51.468;7.146;2022-11-12T04:24:03;23.00;46.10
53314;DHT22;39202;51.468;7.146;2022-11-12T04:29:04;23.00;46.10
53314;DHT22;39202;51.468;7.146;2022-11-12T04:34:23;23.00;46.20
53314;DHT22;39202;51.468;7.146;2022-11-12T04:39:32;22.90;46.10
53314;DHT22;39202;51.468;7.146;2022-11-12T04:44:34;22.90;46.10
53314;DHT22;39202;51.468;7.146;2022-11-12T04:49:53;22.90;46.10
53314;DHT22;39202;51.468;7.146;2022-11-12T04:54:57;22.90;46.10
53314;DHT22;39202;51.468;7.146;2022-11-12T04:59:58;22.90;46.10
53314;DHT22;39202;51.468;7.146;2022-11-12T05:05:00;22.90;46.10
53314;DHT22;39202;51.468;7.146;2022-11-12T05:10:03;22.90;46.10
53314;DHT22;39202;51.468;7.146;2022-11-12T05:15:07;22.80;46.10
53314;DHT22;39202;51.468;7.146;2022-11-12T05:20:09;22.80;46.10
53314;DHT22;39202;51.468;7.146;2022-11-12T05:25:12;22.80;46.10
53314;DHT22;39202;51.468;7.146;2022-11-12T05:30:14;22.80;46.10
53314;DHT22;39202;51.468;7.146;2022-11-12T05:35:16;22.80;46.10
53314;DHT22;39202;51.468;7.146;2022-11-12T05:40:19;22.80;46.10
53314;DHT22;39202;51.468;7.146;2022-11-12T05:45:20;22.80;46.10
53314;DHT22;39202;51.468;7.146;2022-11-12T05:50:22;22.80;46.00
53314;DHT22;39202;51.468;7.146;2022-11-12T05:55:25;22.80;46.00
53314;DHT22;39202;51.468;7.146;2022-11-12T06:00:27;22.80;46.00
53314;DHT22;39202;51.468;7.146;2022-11-12T06:05:29;22.70;46.10
53314;DHT22;39202;51.468;7.146;2022-11-12T06:10:32;22.70;46.00
53314;DHT22;39202;51.468;7.146;2022-11-12T06:15:33;22.70;46.00
53314;DHT22;39202;51.468;7.146;2022-11-12T06:20:35;22.70;46.10
53314;DHT22;39202;51.468;7.146;2022-11-12T06:25:38;22.70;46.10
53314;DHT22;39202;51.468;7.146;2022-11-12T06:30:40;22.70;46.10
53314;DHT22;39202;51.468;7.146;2022-11-12T06:35:42;22.70;46.10
53314;DHT22;39202;51.468;7.146;2022-11-12T06:40:45;22.70;46.10
53314;DHT22;39202;51.468;7.146;2022-11-12T06:45:46;22.70;46.10
53314;DHT22;39202;51.468;7.146;2022-11-12T06:50:48;22.60;46.00
53314;DHT22;39202;51.468;7.146;2022-11-12T06:55:51;22.70;46.10
53314;DHT22;39202;51.468;7.146;2022-11-12T07:00:53;22.60;46.00
53314;DHT22;39202;51.468;7.146;2022-11-12T07:05:55;22.60;46.00
53314;DHT22;39202;51.468;7.146;2022-11-12T07:10:58;22.60;46.00
53314;DHT22;39202;51.468;7.146;2022-11-12T07:16:00;22.60;46.10
53314;DHT22;39202;51.468;7.146;2022-11-12T07:21:04;22.60;46.10
53314;DHT22;39202;51.468;7.146;2022-11-12T07:26:12;22.60;46.10
53314;DHT22;39202;51.468;7.146;2022-11-12T07:31:15;22.60;46.10
53314;DHT22;39202;51.468;7.146;2022-11-12T07:36:19;22.50;46.10
53314;DHT22;39202;51.468;7.146;2022-11-12T07:41:23;22.60;46.00
53314;DHT22;39202;51.468;7.146;2022-11-12T07:46:26;22.50;46.10
53314;DHT22;39202;51.468;7.146;2022-11-12T07:51:28;22.50;46.10
53314;DHT22;39202;51.468;7.146;2022-11-12T07:56:31;22.50;46.00
53314;DHT22;39202;51.468;7.146;2022-11-12T08:01:35;22.50;46.00
53314;DHT22;39202;51.468;7.146;2022-11-12T08:06:37;22.50;46.00
53314;DHT22;39202;51.468;7.146;2022-11-12T08:11:40;22.50;46.00
53314;DHT22;39202;51.468;7.146;2022-11-12T08:16:42;22.50;46.10
53314;DHT22;39202;51.468;7.146;2022-11-12T08:21:46;22.50;46.10
53314;DHT22;39202;51.468;7.146;2022-11-12T08:26:49;22.50;46.10
53314;DHT22;39202;51.468;7.146;2022-11-12T08:31:50;22.50;46.10
53314;DHT22;39202;51.468;7.146;2022-11-12T08:36:52;22.50;46.20
53314;DHT22;39202;51.468;7.146;2022-11-12T08:41:55;22.50;46.20
53314;DHT22;39202;51.468;7.146;2022-11-12T08:46:57;22.60;46.20
53314;DHT22;39202;51.468;7.146;2022-11-12T08:51:59;22.60;46.10
53314;DHT22;39202;51.468;7.146;2022-11-12T08:57:02;22.60;46.20
53314;DHT22;39202;51.468;7.146;2022-11-12T09:02:04;22.60;46.20
53314;DHT22;39202;51.468;7.146;2022-11-12T09:07:06;22.70;46.10
53314;DHT22;39202;51.468;7.146;2022-11-12T09:12:09;22.70;46.20
53314;DHT22;39202;51.468;7.146;2022-11-12T09:17:17;22.80;46.20
53314;DHT22;39202;51.468;7.146;2022-11-12T09:22:19;22.80;46.20
53314;DHT22;39202;51.468;7.146;2022-11-12T09:27:22;22.80;46.10
53314;DHT22;39202;51.468;7.146;2022-11-12T09:32:24;22.90;46.20
53314;DHT22;39202;51.468;7.146;2022-11-12T09:37:25;22.90;46.10
53314;DHT22;39202;51.468;7.146;2022-11-12T09:42:29;22.90;46.10
53314;DHT22;39202;51.468;7.146;2022-11-12T09:47:33;23.00;46.10
53314;DHT22;39202;51.468;7.146;2022-11-12T09:52:38;23.00;46.10
53314;DHT22;39202;51.468;7.146;2022-11-12T09:57:44;23.00;46.00
53314;DHT22;39202;51.468;7.146;2022-11-12T10:02:51;23.10;46.10
53314;DHT22;39202;51.468;7.146;2022-11-12T10:08:16;23.10;46.00
53314;DHT22;39202;51.468;7.146;2022-11-12T10:13:34;23.20;46.00
53314;DHT22;39202;51.468;7.146;2022-11-12T10:18:49;23.20;46.00
53314;DHT22;39202;51.468;7.146;2022-11-12T10:23:52;23.20;46.00
53314;DHT22;39202;51.468;7.146;2022-11-12T10:29:00;23.30;46.00
53314;DHT22;39202;51.468;7.146;2022-11-12T10:34:17;23.30;45.90
53314;DHT22;39202;51.468;7.146;2022-11-12T10:39:31;23.40;46.00
53314;DHT22;39202;51.468;7.146;2022-11-12T10:44:35;23.40;45.90
53314;DHT22;39202;51.468;7.146;2022-11-12T10:49:36;23.40;45.90
53314;DHT22;39202;51.468;7.146;2022-11-12T10:54:38;23.40;45.80
53314;DHT22;39202;51.468;7.146;2022-11-12T10:59:41;23.50;45.80
53314;DHT22;39202;51.468;7.146;2022-11-12T11:04:43;23.50;45.80
53314;DHT22;39202;51.468;7.146;2022-11-12T11:09:51;23.50;45.80
53314;DHT22;39202;51.468;7.146;2022-11-12T11:15:07;23.60;45.80
53314;DHT22;39202;51.468;7.146;2022-11-12T11:20:15;23.60;45.70
53314;DHT22;39202;51.468;7.146;2022-11-12T11:25:22;23.60;45.70
53314;DHT22;39202;51.468;7.146;2022-11-12T11:30:28;23.60;45.70
53314;DHT22;39202;51.468;7.146;2022-11-12T11:35:42;23.70;45.70
53314;DHT22;39202;51.468;7.146;2022-11-12T11:40:51;23.70;45.70
53314;DHT22;39202;51.468;7.146;2022-11-12T11:46:07;23.70;45.60
53314;DHT22;39202;51.468;7.146;2022-11-12T11:51:25;23.70;45.60
53314;DHT22;39202;51.468;7.146;2022-11-12T11:56:31;23.80;45.70
53314;DHT22;39202;51.468;7.146;2022-11-12T12:01:44;23.70;45.60
53314;DHT22;39202;51.468;7.146;2022-11-12T12:06:59;23.70;45.60
53314;DHT22;39202;51.468;7.146;2022-11-12T12:12:15;23.70;45.60
53314;DHT22;39202;51.468;7.146;2022-11-12T12:17:32;23.80;45.60
53314;DHT22;39202;51.468;7.146;2022-11-12T12:22:44;23.80;45.60
53314;DHT22;39202;51.468;7.146;2022-11-12T12:27:49;23.80;45.60
53314;DHT22;39202;51.468;7.146;2022-11-12T12:32:57;23.80;45.50
53314;DHT22;39202;51.468;7.146;2022-11-12T12:38:05;23.80;45.50
53314;DHT22;39202;51.468;7.146;2022-11-12T12:43:16;23.80;45.50
53314;DHT22;39202;51.468;7.146;2022-11-12T12:48:26;23.80;45.50
53314;DHT22;39202;51.468;7.146;2022-11-12T12:53:33;23.90;45.50
53314;DHT22;39202;51.468;7.146;2022-11-12T12:58:42;23.90;45.40
53314;DHT22;39202;51.468;7.146;2022-11-12T13:03:54;23.90;45.40
53314;DHT22;39202;51.468;7.146;2022-11-12T13:09:02;23.90;45.40
53314;DHT22;39202;51.468;7.146;2022-11-12T13:19:44;23.90;45.40
53314;DHT22;39202;51.468;7.146;2022-11-12T13:25:00;23.90;45.40
53314;DHT22;39202;51.468;7.146;2022-11-12T13:30:05;23.90;45.30
53314;DHT22;39202;51.468;7.146;2022-11-12T13:35:25;23.90;45.40
53314;DHT22;39202;51.468;7.146;2022-11-12T13:40:45;23.90;45.30
53314;DHT22;39202;51.468;7.146;2022-11-12T13:45:49;23.90;45.20
53314;DHT22;39202;51.468;7.146;2022-11-12T13:50:56;23.90;45.30
53314;DHT22;39202;51.468;7.146;2022-11-12T13:55:58;23.90;45.30
53314;DHT22;39202;51.468;7.146;2022-11-12T14:01:02;23.90;45.30
53314;DHT22;39202;51.468;7.146;2022-11-12T14:06:16;23.90;45.30
53314;DHT22;39202;51.468;7.146;2022-11-12T14:11:45;23.90;45.20
53314;DHT22;39202;51.468;7.146;2022-11-12T14:16:59;23.90;45.20
53314;DHT22;39202;51.468;7.146;2022-11-12T14:22:13;23.90;45.30
53314;DHT22;39202;51.468;7.146;2022-11-12T14:27:34;23.80;45.20
53314;DHT22;39202;51.468;7.146;2022-11-12T14:32:36;23.80;45.20
53314;DHT22;39202;51.468;7.146;2022-11-12T14:37:45;23.80;45.30
53314;DHT22;39202;51.468;7.146;2022-11-12T14:42:48;23.80;45.30
53314;DHT22;39202;51.468;7.146;2022-11-12T14:47:52;23.80;45.30
53314;DHT22;39202;51.468;7.146;2022-11-12T14:52:59;23.80;45.30
53314;DHT22;39202;51.468;7.146;2022-11-12T14:58:03;23.80;45.30
53314;DHT22;39202;51.468;7.146;2022-11-12T15:03:06;23.80;45.20
53314;DHT22;39202;51.468;7.146;2022-11-12T15:08:29;23.80;45.30
53314;DHT22;39202;51.468;7.146;2022-11-12T15:13:37;23.80;45.30
53314;DHT22;39202;51.468;7.146;2022-11-12T15:18:40;23.70;45.20
53314;DHT22;39202;51.468;7.146;2022-11-12T15:23:50;23.70;45.20
53314;DHT22;39202;51.468;7.146;2022-11-12T15:28:58;23.70;45.20
53314;DHT22;39202;51.468;7.146;2022-11-12T15:34:25;23.70;45.20
53314;DHT22;39202;51.468;7.146;2022-11-12T15:39:30;23.60;45.20
53314;DHT22;39202;51.468;7.146;2022-11-12T15:44:34;23.70;45.30
53314;DHT22;39202;51.468;7.146;2022-11-12T15:49:46;23.60;45.30
53314;DHT22;39202;51.468;7.146;2022-11-12T15:54:49;23.60;45.30
53314;DHT22;39202;51.468;7.146;2022-11-12T15:59:54;23.60;45.30
53314;DHT22;39202;51.468;7.146;2022-11-12T16:04:57;23.60;45.30
53314;DHT22;39202;51.468;7.146;2022-11-12T16:10:00;23.60;45.30
53314;DHT22;39202;51.468;7.146;2022-11-12T16:15:02;23.50;45.20
53314;DHT22;39202;51.468;7.146;2022-11-12T16:20:12;23.50;45.30
53314;DHT22;39202;51.468;7.146;2022-11-12T16:25:15;23.50;45.30
53314;DHT22;39202;51.468;7.146;2022-11-12T16:30:20;23.50;45.30
53314;DHT22;39202;51.468;7.146;2022-11-12T16:35:22;23.50;45.30
53314;DHT22;39202;51.468;7.146;2022-11-12T16:40:27;23.50;45.30
53314;DHT22;39202;51.468;7.146;2022-11-12T16:45:33;23.50;45.30
53314;DHT22;39202;51.468;7.146;2022-11-12T16:50:35;23.50;45.30
53314;DHT22;39202;51.468;7.146;2022-11-12T16:55:39;23.40;45.30
53314;DHT22;39202;51.468;7.146;2022-11-12T17:00:41;23.40;45.30
53314;DHT22;39202;51.468;7.146;2022-11-12T17:05:49;23.40;45.20
53314;DHT22;39202;51.468;7.146;2022-11-12T17:10:53;23.40;45.30
53314;DHT22;39202;51.468;7.146;2022-11-12T17:15:57;25.70;46.50
53314;DHT22;39202;51.468;7.146;2022-11-12T17:21:07;23.40;45.30
53314;DHT22;39202;51.468;7.146;2022-11-12T17:26:13;23.40;45.30
53314;DHT22;39202;51.468;7.146;2022-11-12T17:31:17;23.40;45.30
53314;DHT22;39202;51.468;7.146;2022-11-12T17:36:21;23.40;45.30
53314;DHT22;39202;51.468;7.146;2022-11-12T17:41:25;23.40;45.30
53314;DHT22;39202;51.468;7.146;2022-11-12T17:46:28;23.30;45.30
53314;DHT22;39202;51.468;7.146;2022-11-12T17:51:30;23.30;45.30
53314;DHT22;39202;51.468;7.146;2022-11-12T17:56:33;23.30;45.30
53314;DHT22;39202;51.468;7.146;2022-11-12T18:01:35;23.30;45.30
53314;DHT22;39202;51.468;7.146;2022-11-12T18:06:37;23.30;45.30
53314;DHT22;39202;51.468;7.146;2022-11-12T18:11:44;23.30;45.20
53314;DHT22;39202;51.468;7.146;2022-11-12T18:16:46;23.30;45.10
53314;DHT22;39202;51.468;7.146;2022-11-12T18:21:47;23.30;45.10
53314;DHT22;39202;51.468;7.146;2022-11-12T18:26:51;23.30;45.20
53314;DHT22;39202;51.468;7.146;2022-11-12T18:31:53;23.30;45.20
53314;DHT22;39202;51.468;7.146;2022-11-12T18:36:55;23.30;45.30
53314;DHT22;39202;51.468;7.146;2022-11-12T18:41:58;23.20;45.20
53314;DHT22;39202;51.468;7.146;2022-11-12T18:46:59;23.20;45.20
53314;DHT22;39202;51.468;7.146;2022-11-12T18:52:01;23.20;45.20
53314;DHT22;39202;51.468;7.146;2022-11-12T18:57:04;23.20;45.20
53314;DHT22;39202;51.468;7.146;2022-11-12T19:02:08;23.20;45.20
53314;DHT22;39202;51.468;7.146;2022-11-12T19:07:10;23.20;45.20
53314;DHT22;39202;51.468;7.146;2022-11-12T19:12:13;23.20;45.30
53314;DHT22;39202;51.468;7.146;2022-11-12T19:17:15;23.10;45.20
53314;DHT22;39202;51.468;7.146;2022-11-12T19:22:17;23.10;45.20
53314;DHT22;39202;51.468;7.146;2022-11-12T19:27:20;23.10;45.20
53314;DHT22;39202;51.468;7.146;2022-11-12T19:32:22;23.10;45.20
53314;DHT22;39202;51.468;7.146;2022-11-12T19:37:24;21.30;44.40
53314;DHT22;39202;51.468;7.146;2022-11-12T19:42:27;23.10;45.20
53314;DHT22;39202;51.468;7.146;2022-11-12T19:47:29;23.10;45.30
53314;DHT22;39202;51.468;7.146;2022-11-12T19:52:30;23.10;45.20
53314;DHT22;39202;51.468;7.146;2022-11-12T19:57:33;23.10;45.20
53314;DHT22;39202;51.468;7.146;2022-11-12T20:02:35;23.00;45.20
53314;DHT22;39202;51.468;7.146;2022-11-12T20:07:37;23.00;45.20
53314;DHT22;39202;51.468;7.146;2022-11-12T20:12:40;23.00;45.20
53314;DHT22;39202;51.468;7.146;2022-11-12T20:17:41;23.00;45.20
53314;DHT22;39202;51.468;7.146;2022-11-12T20:22:43;23.00;45.30
53314;DHT22;39202;51.468;7.146;2022-11-12T20:27:46;23.00;45.20
53314;DHT22;39202;51.468;7.146;2022-11-12T20:32:48;23.00;45.30
53314;DHT22;39202;51.468;7.146;2022-11-12T20:37:50;23.00;45.30
53314;DHT22;39202;51.468;7.146;2022-11-12T20:42:54;23.00;45.30
53314;DHT22;39202;51.468;7.146;2022-11-12T20:47:56;23.00;45.30
53314;DHT22;39202;51.468;7.146;2022-11-12T20:52:58;23.00;45.30
53314;DHT22;39202;51.468;7.146;2022-11-12T20:58:01;22.90;45.20
53314;DHT22;39202;51.468;7.146;2022-11-12T21:03:03;22.90;45.30
53314;DHT22;39202;51.468;7.146;2022-11-12T21:08:05;22.90;45.30
53314;DHT22;39202;51.468;7.146;2022-11-12T21:13:08;22.90;45.30
53314;DHT22;39202;51.468;7.146;2022-11-12T21:18:10;22.90;45.30
53314;DHT22;39202;51.468;7.146;2022-11-12T21:23:12;22.90;45.30
53314;DHT22;39202;51.468;7.146;2022-11-12T21:28:15;22.90;45.30
53314;DHT22;39202;51.468;7.146;2022-11-12T21:33:16;22.90;45.30
53314;DHT22;39202;51.468;7.146;2022-11-12T21:38:18;22.90;45.30
53314;DHT22;39202;51.468;7.146;2022-11-12T21:43:21;22.80;45.30
53314;DHT22;39202;51.468;7.146;2022-11-12T21:48:23;22.90;45.30
53314;DHT22;39202;51.468;7.146;2022-11-12T21:53:24;22.90;45.30
53314;DHT22;39202;51.468;7.146;2022-11-12T21:58:28;22.80;45.30
53314;DHT22;39202;51.468;7.146;2022-11-12T22:03:29;22.90;45.30
53314;DHT22;39202;51.468;7.146;2022-11-12T22:08:31;22.90;45.20
53314;DHT22;39202;51.468;7.146;2022-11-12T22:13:35;22.80;45.20
53314;DHT22;39202;51.468;7.146;2022-11-12T22:18:37;22.80;45.20
53314;DHT22;39202;51.468;7.146;2022-11-12T22:23:39;22.80;45.20
53314;DHT22;39202;51.468;7.146;2022-11-12T22:28:42;22.80;45.20
53314;DHT22;39202;51.468;7.146;2022-11-12T22:33:44;22.80;45.30
53314;DHT22;39202;51.468;7.146;2022-11-12T22:38:47;22.80;45.30
53314;DHT22;39202;51.468;7.146;2022-11-12T22:43:52;22.80;45.30
53314;DHT22;39202;51.468;7.146;2022-11-12T22:48:54;22.80;45.40
53314;DHT22;39202;51.468;7.146;2022-11-12T22:53:58;22.80;45.40
53314;DHT22;39202;51.468;7.146;2022-11-12T22:59:02;22.70;45.30
53314;DHT22;39202;51.468;7.146;2022-11-12T23:04:05;22.70;45.30
53314;DHT22;39202;51.468;7.146;2022-11-12T23:09:08;22.70;45.30
53314;DHT22;39202;51.468;7.146;2022-11-12T23:14:15;22.70;45.30
53314;DHT22;39202;51.468;7.146;2022-11-12T23:19:16;22.70;45.30
53314;DHT22;39202;51.468;7.146;2022-11-12T23:24:19;25.30;46.60
53314;DHT22;39202;51.468;7.146;2022-11-12T23:29:22;22.70;45.40
53314;DHT22;39202;51.468;7.146;2022-11-12T23:34:24;22.70;45.30
53314;DHT22;39202;51.468;7.146;2022-11-12T23:39:25;22.70;45.40
53314;DHT22;39202;51.468;7.146;2022-11-12T23:44:28;22.70;45.40
53314;DHT22;39202;51.468;7.146;2022-11-12T23:49:30;22.70;45.40
53314;DHT22;39202;51.468;7.146;2022-11-12T23:54:32;22.70;45.40
53314;DHT22;39202;51.468;7.146;2022-11-12T23:59:35;22.60;45.30
